KSBPKHHR

Guest
Details From KSBP - San Luis Co Rgnl
To KHHR - Jack Northrop Fld Hawthorne Muni
Flight Number -
Tags generated
Created
Modified
Stats Distance 139 nm / 257 km
Max Altitude 11,200 ft / 3,414 m
Waypoints 3
Social Downloads 1
Likes 0
Share VATSIM

Download

Looking for another format? Having issues loading an existing format? Contact us
Advertisement - Login to hide

Notes

Basic altitude profile: - Ascent Rate: 1000ft/min - Ascent Speed: 88kts - Cruise Altitude: 7000ft - Cruise Speed: 88kts - Descent Rate: 500ft/min - Descent Speed: 120kts Options: - Use NATs: yes - Use PACOTS: yes - Use low airways: yes - Use high airways: yes

Route

KSBP OHIGH KHHR

ID Type Via Altitude Latitude Longitude Leg Dist Tot Dist Heading (true) Name
O KSBP APT - 0 ft / 0 m 35.23714˚ -120.64346˚ - 0 nm - San Luis Co Rgnl
OHIGH FIX - 11,200 ft / 3,414 m 34.43135˚ -119.31082˚ 81 nm 81 nm 126° / 127° -
O KHHR APT - 0 ft / 0 m 33.92286˚ -118.33516˚ 57 nm 138 nm 122° / 122° Jack Northrop Fld Hawthorne Muni

Altitude Profile

Advertisement - Login to hide

KSBP

Details ICAO KSBP (SBP)
Name San Luis Co Rgnl
Region United States
Timezone America/Los_Angeles (UTC-8.0)
Stats Elevation 212 ft / 65 m (AMSL)
Location 35.237141° -120.643460°
Runways 2
Magnetic Variation 12.677° E

METAR

KSBP 171356Z 22004KT 10SM CLR 09/M08 A2992 RMK AO2 SLP131 T00891078

Decode

TAF

TAF KSBP 171138Z 1712/1812 VRB03KT P6SM SKC FM172100 32010KT P6SM SKC FM180200 VRB03KT P6SM SKC

Decode

Departure Runways

ID Width Length Bearing (true) Bearing (mag) Surface Threshold Offset Overrun Length
07 98 ft / 30 m 2,522 ft / 769 m 89.79° 77.11° Asphalt 0 ft / 0 m 0 ft / 0 m
11 151 ft / 46 m 6,106 ft / 1,861 m 124.87° 112.19° Asphalt 801 ft / 244 m 600 ft / 183 m
25 98 ft / 30 m 2,522 ft / 769 m 269.80° 257.12° Asphalt 0 ft / 0 m 0 ft / 0 m
29 151 ft / 46 m 6,106 ft / 1,861 m 304.88° 292.20° Asphalt 499 ft / 152 m 600 ft / 183 m

KHHR

Details ICAO KHHR (HHR)
Name Jack Northrop Fld Hawthorne Muni
Region United States
Timezone America/Los_Angeles (UTC-8.0)
Stats Elevation 66 ft / 20 m (AMSL)
Location 33.922857° -118.335162°
Runways 1
Magnetic Variation 11.987° E

METAR

KHHR 171353Z AUTO 00000KT 10SM CLR 10/01 A2986 RMK AO2 SLP112 T01000006

Decode

TAF

Not found

Destination Runways

ID Width Length Bearing (true) Bearing (mag) Surface Threshold Offset Overrun Length
07 98 ft / 30 m 4,961 ft / 1,512 m 86.70° 74.71° Concrete 971 ft / 296 m 0 ft / 0 m
25 98 ft / 30 m 4,961 ft / 1,512 m 266.70° 254.71° Concrete 463 ft / 141 m 0 ft / 0 m

Approach Navaids

Runway Type Ident Frequency Range Bearing (true) Bearing (mag) Slope Elevation
25 Localiser IHHR 109.10 MHz 18 nm / 33 km 266.65° 254.66° - 66 ft / 20 m (AMSL)